Aérodrome :
LOGIN :

S'inscrire | Disclaimer

   EN    FR    IT 

 










Légende :    VFR   VFR Marginal   IFR   IFR Intensif   IFR Très Intensif
Visi : 
Plafond : 
>= 8 km
>= 3000ft
5 à 8 km
1000 à 3000 ft
1500m à 5 km
500 à 1000 ft
800 à 1500m
200 à 500 ft
< 800m
< 200 ft
Symboles :   Orages  Brouillard  Fortes neiges  Fortes précipitations  Vent > 20 kt
SIGMETs :   Divers  Orages  Givrage  Turbulence  Onde Orograph.  Cendres Volcan.






- Altitude de l'aérodrome : 29 ft
- Code IATA : SVG


ENZV - Sola

DERNIER METAR :
  • 290920Z 36007KT 9999 FEW035 BKN051 OVC068 02/M05 Q1040 TEMPO 2000 SHSNRA VV010

METARs EXPIRÉS :
  • 290850Z 35009KT 9999 VCSH FEW015 SCT035 02/M06 Q1040 TEMPO 2000 SHSNRA VV010
  • 290820Z 34009KT 9999 FEW024 BKN041 02/M07 Q1040 TEMPO 2000 SHSNRA VV010
  • 290750Z 35011KT 9999 FEW030 BKN051 02/M07 Q1040 TEMPO 2000 SHSNRA VV010
  • 290720Z 35011KT 9999 SCT059 02/M06 Q1040 TEMPO 33015G25KT 2000 SHSNRA VV010
  • 290650Z 34013KT CAVOK 01/M05 Q1040 TEMPO 30010KT

AMD TAF ENZV
Valide du 29 à 07h jusqu'au 30 à 06h UTC


2907/3006 36012KT 9999 FEW020 SCT030
BECMG 2909/2912 30010KT
TEMPO 2908/2924 2000 SHSNRA VV010
TEMPO 2911/2921 33015G25KT
BECMG 2921/2924 36010KT



MET'MAP, la Météo Aéronautique d'un coup d'oeil ! - Copyright ORBIFLY Décembre 2007 - Disclaimer

ORBIFLY MET'MAP TEAM :

Programmation & Développement : Alexandra Zaïnal
Sur une idée originale de : Baudouin d'Aumeries
Assistance à la programmation : Marc-Olivier Méhu
Soutien technique & logistique : Manuel Goepfert

Contact : metmap@orbifly.com




SOURCES & CREDITS :

   NOAA